Wetterdaten: Woche 06.07.15 - 12.07.15 (KW28)
Datum Zeit Temp. A. Feuchte A. Luftdruck Regen Wind Richtung Taupunkt Windchill Windben
06.07.2015 00:00 21,3 C 65 % 1014,0 hPa 0,0 l/m 0,0 km/h N 14,3 C 21,3 C 0,0 km/h
06.07.2015 01:00 20,0 C 70 % 1013,6 hPa 0,0 l/m 0,0 km/h N 14,2 C 20,0 C 0,0 km/h
06.07.2015 02:00 18,8 C 74 % 1013,6 hPa 0,0 l/m 0,0 km/h N 14,0 C 18,8 C 0,0 km/h
06.07.2015 03:00 17,9 C 78 % 1013,7 hPa 0,0 l/m 0,0 km/h N 13,9 C 17,9 C 0,0 km/h
06.07.2015 04:00 17,1 C 80 % 1013,8 hPa 0,0 l/m 0,0 km/h N 13,6 C 17,1 C 0,0 km/h
06.07.2015 05:00 16,7 C 81 % 1013,4 hPa 0,0 l/m 0,0 km/h N 13,4 C 16,7 C 0,4 km/h
06.07.2015 06:00 17,2 C 81 % 1013,8 hPa 0,0 l/m 0,0 km/h N 13,9 C 17,2 C 0,4 km/h
06.07.2015 07:00 20,3 C 77 % 1014,6 hPa 0,0 l/m 0,4 km/h N 16,0 C 20,3 C 2,4 km/h
06.07.2015 08:00 25,9 C 61 % 1014,9 hPa 0,0 l/m 4,1 km/h N 17,7 C 25,8 C 14,5 km/h
06.07.2015 09:00 28,9 C 56 % 1015,0 hPa 0,0 l/m 11,2 km/h N 19,2 C 28,3 C 34,2 km/h
06.07.2015 10:00 27,9 C 61 % 1015,2 hPa 0,0 l/m 13,3 km/h N 19,5 C 27,0 C 42,3 km/h
06.07.2015 11:00 29,6 C 52 % 1015,3 hPa 0,0 l/m 16,5 km/h N 18,7 C 28,8 C 42,2 km/h
06.07.2015 12:00 30,6 C 50 % 1015,4 hPa 0,0 l/m 18,9 km/h N 18,8 C 29,9 C 39,8 km/h
06.07.2015 13:00 30,6 C 49 % 1015,7 hPa 0,0 l/m 17,3 km/h N 18,7 C 29,9 C 37,8 km/h
06.07.2015 14:00 31,2 C 50 % 1015,8 hPa 0,0 l/m 12,5 km/h N 19,3 C 30,9 C 31,4 km/h
06.07.2015 15:00 32,0 C 51 % 1015,7 hPa 0,0 l/m 9,5 km/h N 20,4 C 31,9 C 25,0 km/h
06.07.2015 16:00 32,1 C 50 % 1015,7 hPa 0,0 l/m 7,6 km/h N 20,4 C 32,1 C 24,5 km/h
06.07.2015 17:00 32,7 C 49 % 1015,6 hPa 0,0 l/m 4,7 km/h N 20,3 C 32,7 C 18,9 km/h
06.07.2015 18:00 33,0 C 46 % 1015,3 hPa 0,0 l/m 4,6 km/h N 19,8 C 33,0 C 16,9 km/h
06.07.2015 19:00 32,3 C 47 % 1015,2 hPa 0,0 l/m 2,3 km/h N 19,6 C 32,3 C 13,7 km/h
06.07.2015 20:00 30,4 C 51 % 1015,2 hPa 0,0 l/m 2,0 km/h N 19,0 C 30,4 C 9,7 km/h
06.07.2015 21:00 28,5 C 55 % 1015,7 hPa 0,0 l/m 0,2 km/h N 18,6 C 28,5 C 2,4 km/h
06.07.2015 22:00 26,2 C 61 % 1016,0 hPa 0,0 l/m 0,0 km/h N 18,0 C 26,2 C 0,8 km/h
06.07.2015 23:00 24,9 C 64 % 1016,1 hPa 0,0 l/m 0,0 km/h N 17,5 C 24,9 C 0,4 km/h
07.07.2015 00:00 24,3 C 67 % 1016,1 hPa 0,0 l/m 0,2 km/h N 17,7 C 24,3 C 1,6 km/h
07.07.2015 01:00 24,3 C 70 % 1016,4 hPa 0,0 l/m 0,3 km/h N 18,4 C 24,3 C 3,6 km/h
07.07.2015 02:00 23,3 C 73 % 1016,3 hPa 0,0 l/m 0,1 km/h N 18,2 C 23,3 C 1,6 km/h
07.07.2015 03:00 21,7 C 77 % 1016,3 hPa 0,0 l/m 0,0 km/h N 17,4 C 21,7 C 0,0 km/h
07.07.2015 04:00 20,6 C 80 % 1016,0 hPa 0,0 l/m 0,0 km/h N 17,0 C 20,6 C 0,0 km/h
07.07.2015 05:00 20,1 C 81 % 1015,9 hPa 0,0 l/m 0,0 km/h N 16,7 C 20,1 C 0,4 km/h
07.07.2015 06:00 20,3 C 81 % 1015,9 hPa 0,0 l/m 0,0 km/h N 16,9 C 20,3 C 0,0 km/h
07.07.2015 07:00 21,7 C 80 % 1015,8 hPa 0,0 l/m 0,0 km/h N 18,1 C 21,7 C 0,8 km/h
07.07.2015 08:00 25,7 C 69 % 1015,5 hPa 0,0 l/m 0,2 km/h N 19,6 C 25,7 C 2,4 km/h
07.07.2015 09:00 29,8 C 58 % 1014,9 hPa 0,0 l/m 0,2 km/h N 20,4 C 29,8 C 3,2 km/h
07.07.2015 10:00 30,6 C 55 % 1014,3 hPa 0,0 l/m 1,3 km/h N 20,6 C 30,6 C 6,4 km/h
07.07.2015 11:00 32,8 C 50 % 1013,7 hPa 0,0 l/m 1,0 km/h N 21,0 C 32,8 C 7,6 km/h
07.07.2015 12:00 34,0 C 47 % 1013,0 hPa 0,0 l/m 1,0 km/h N 21,2 C 34,0 C 6,8 km/h
07.07.2015 13:00 34,6 C 46 % 1012,2 hPa 0,0 l/m 1,4 km/h N 21,3 C 34,6 C 7,2 km/h
07.07.2015 14:00 36,3 C 44 % 1011,2 hPa 0,0 l/m 2,0 km/h N 22,0 C 36,3 C 10,5 km/h
07.07.2015 15:00 36,5 C 43 % 1010,3 hPa 0,0 l/m 1,7 km/h N 21,6 C 36,5 C 8,4 km/h
07.07.2015 16:00 35,2 C 44 % 1010,0 hPa 0,0 l/m 1,1 km/h N 21,2 C 35,2 C 8,1 km/h
07.07.2015 17:00 33,8 C 46 % 1009,5 hPa 0,0 l/m 1,4 km/h N 20,6 C 33,8 C 8,8 km/h
07.07.2015 18:00 31,9 C 52 % 1009,1 hPa 0,0 l/m 1,1 km/h N 20,8 C 31,9 C 5,6 km/h
07.07.2015 19:00 30,0 C 57 % 1008,1 hPa 0,0 l/m 1,5 km/h N 20,5 C 30,0 C 8,0 km/h
07.07.2015 20:00 29,0 C 62 % 1007,1 hPa 0,0 l/m 1,0 km/h N 20,8 C 29,0 C 6,0 km/h
07.07.2015 21:00 28,2 C 62 % 1007,0 hPa 0,0 l/m 1,1 km/h N 20,1 C 28,2 C 8,0 km/h
07.07.2015 22:00 27,2 C 66 % 1006,8 hPa 0,0 l/m 2,5 km/h N 20,3 C 27,2 C 9,6 km/h
07.07.2015 23:00 26,6 C 68 % 1005,9 hPa 0,0 l/m 2,0 km/h N 20,1 C 26,6 C 12,1 km/h
08.07.2015 00:00 25,9 C 69 % 1004,8 hPa 0,0 l/m 0,2 km/h N 19,8 C 25,9 C 4,0 km/h
08.07.2015 01:00 24,4 C 73 % 1004,4 hPa 0,0 l/m 0,0 km/h N 19,3 C 24,4 C 0,4 km/h
08.07.2015 02:00 22,8 C 78 % 1004,5 hPa 0,0 l/m 0,4 km/h N 18,7 C 22,8 C 2,4 km/h
08.07.2015 03:00 29,6 C 43 % 1005,2 hPa 0,0 l/m 13,6 km/h N 15,4 C 28,9 C 40,7 km/h
08.07.2015 04:00 30,3 C 38 % 1004,8 hPa 0,0 l/m 12,1 km/h N 14,2 C 29,8 C 34,6 km/h
08.07.2015 05:00 30,1 C 37 % 1004,6 hPa 0,0 l/m 7,4 km/h N 13,8 C 29,9 C 22,9 km/h
08.07.2015 06:00 29,4 C 41 % 1006,9 hPa 0,0 l/m 6,3 km/h N 14,6 C 29,2 C 20,5 km/h
08.07.2015 07:00 28,1 C 48 % 1007,8 hPa 0,0 l/m 5,2 km/h N 15,9 C 28,1 C 19,7 km/h
08.07.2015 08:00 28,8 C 49 % 1007,5 hPa 0,0 l/m 5,8 km/h N 16,8 C 28,8 C 20,1 km/h
08.07.2015 09:00 29,4 C 50 % 1007,8 hPa 0,0 l/m 8,7 km/h N 17,7 C 29,1 C 24,5 km/h
08.07.2015 10:00 27,8 C 54 % 1008,4 hPa 0,0 l/m 7,3 km/h N 17,5 C 27,6 C 22,1 km/h
08.07.2015 11:00 26,9 C 61 % 1008,7 hPa 0,3 l/m 4,4 km/h N 18,6 C 26,8 C 18,5 km/h
08.07.2015 12:00 25,7 C 62 % 1008,4 hPa 0,0 l/m 4,4 km/h N 17,8 C 25,7 C 16,9 km/h
08.07.2015 13:00 25,0 C 66 % 1008,5 hPa 1,6 l/m 4,0 km/h N 17,9 C 25,0 C 14,5 km/h
08.07.2015 14:00 22,0 C 80 % 1009,5 hPa 2,1 l/m 0,3 km/h N 18,3 C 22,0 C 2,8 km/h
08.07.2015 15:00 21,5 C 80 % 1009,6 hPa 3,4 l/m 0,1 km/h N 17,8 C 21,5 C 1,2 km/h
08.07.2015 16:00 20,9 C 80 % 1009,5 hPa 1,6 l/m 0,4 km/h N 17,3 C 20,9 C 4,8 km/h
08.07.2015 17:00 19,8 C 81 % 1009,8 hPa 1,6 l/m 6,3 km/h N 16,4 C 19,7 C 20,1 km/h
08.07.2015 18:00 19,2 C 80 % 1010,3 hPa 0,8 l/m 4,3 km/h N 15,7 C 19,1 C 17,7 km/h
08.07.2015 19:00 18,1 C 81 % 1011,0 hPa 4,9 l/m 2,6 km/h N 14,8 C 18,1 C 13,7 km/h
08.07.2015 20:00 17,2 C 81 % 1011,3 hPa 1,6 l/m 0,9 km/h N 13,9 C 17,2 C 5,6 km/h
08.07.2015 21:00 16,9 C 81 % 1011,8 hPa 0,0 l/m 0,8 km/h N 13,6 C 16,9 C 5,6 km/h
08.07.2015 22:00 17,4 C 81 % 1011,6 hPa 0,0 l/m 6,9 km/h N 14,1 C 16,8 C 22,1 km/h
08.07.2015 23:00 18,6 C 77 % 1012,1 hPa 0,0 l/m 9,9 km/h N 14,6 C 17,2 C 26,1 km/h
09.07.2015 00:00 18,8 C 75 % 1012,4 hPa 0,0 l/m 7,1 km/h N 14,3 C 18,3 C 20,9 km/h
09.07.2015 01:00 18,1 C 77 % 1012,7 hPa 0,0 l/m 2,5 km/h N 14,0 C 18,1 C 14,9 km/h
09.07.2015 02:00 17,4 C 79 % 1012,9 hPa 0,0 l/m 1,5 km/h N 13,7 C 17,4 C 9,7 km/h
09.07.2015 03:00 17,2 C 79 % 1012,9 hPa 0,0 l/m 2,2 km/h N 13,5 C 17,2 C 13,3 km/h
09.07.2015 04:00 17,4 C 75 % 1013,3 hPa 0,0 l/m 2,9 km/h N 12,9 C 17,4 C 13,3 km/h
09.07.2015 05:00 16,8 C 76 % 1014,0 hPa 0,0 l/m 0,6 km/h N 12,5 C 16,8 C 5,6 km/h
09.07.2015 06:00 17,3 C 74 % 1014,6 hPa 0,0 l/m 3,1 km/h N 12,6 C 17,3 C 14,1 km/h
09.07.2015 07:00 18,4 C 71 % 1014,8 hPa 0,0 l/m 2,2 km/h N 12,9 C 18,4 C 12,9 km/h
09.07.2015 08:00 19,1 C 64 % 1014,9 hPa 0,0 l/m 6,4 km/h N 12,0 C 18,8 C 21,3 km/h
09.07.2015 09:00 20,7 C 59 % 1014,9 hPa 0,0 l/m 7,3 km/h N 12,2 C 20,3 C 22,1 km/h
09.07.2015 10:00 21,3 C 54 % 1014,8 hPa 0,0 l/m 11,0 km/h N 11,7 C 19,8 C 25,4 km/h
09.07.2015 11:00 21,9 C 54 % 1014,7 hPa 0,0 l/m 11,7 km/h N 12,1 C 20,4 C 30,6 km/h
09.07.2015 12:00 22,3 C 54 % 1014,4 hPa 0,0 l/m 7,4 km/h N 12,5 C 22,0 C 24,1 km/h
09.07.2015 13:00 22,2 C 53 % 1014,2 hPa 0,0 l/m 8,8 km/h N 12,1 C 21,4 C 29,8 km/h
09.07.2015 14:00 22,9 C 46 % 1014,3 hPa 0,0 l/m 12,0 km/h N 10,6 C 21,4 C 31,8 km/h
09.07.2015 15:00 22,5 C 44 % 1014,4 hPa 0,0 l/m 12,5 km/h N 9,7 C 20,8 C 34,2 km/h
09.07.2015 16:00 22,7 C 48 % 1014,3 hPa 0,0 l/m 10,4 km/h N 10,9 C 21,5 C 33,0 km/h
09.07.2015 17:00 20,1 C 57 % 1016,0 hPa 0,0 l/m 13,3 km/h N 11,3 C 18,0 C 37,0 km/h
09.07.2015 18:00 19,4 C 61 % 1016,3 hPa 0,0 l/m 8,7 km/h N 11,5 C 18,4 C 22,1 km/h
09.07.2015 19:00 18,8 C 65 % 1016,8 hPa 0,0 l/m 10,0 km/h N 12,0 C 17,3 C 22,9 km/h
09.07.2015 20:00 17,7 C 69 % 1018,0 hPa 0,3 l/m 6,8 km/h N 11,8 C 17,5 C 20,9 km/h
09.07.2015 21:00 15,1 C 76 % 1018,5 hPa 0,5 l/m 3,0 km/h N 11,0 C 15,1 C 12,9 km/h
09.07.2015 22:00 15,1 C 77 % 1019,0 hPa 0,0 l/m 7,2 km/h N 11,0 C 14,6 C 20,5 km/h
09.07.2015 23:00 15,7 C 73 % 1019,5 hPa 0,0 l/m 11,3 km/h N 10,9 C 13,4 C 26,9 km/h
10.07.2015 00:00 15,6 C 73 % 1020,1 hPa 0,0 l/m 11,7 km/h N 10,9 C 13,2 C 25,3 km/h
10.07.2015 01:00 15,5 C 74 % 1020,3 hPa 0,0 l/m 7,7 km/h N 10,8 C 14,8 C 19,7 km/h
10.07.2015 02:00 15,0 C 77 % 1020,6 hPa 0,0 l/m 5,2 km/h N 10,9 C 15,0 C 13,3 km/h
10.07.2015 03:00 14,8 C 77 % 1020,8 hPa 0,0 l/m 2,9 km/h N 10,8 C 14,8 C 12,1 km/h
10.07.2015 04:00 14,5 C 77 % 1020,9 hPa 0,0 l/m 1,7 km/h N 10,4 C 14,5 C 9,7 km/h
10.07.2015 05:00 13,4 C 78 % 1021,3 hPa 0,0 l/m 0,2 km/h N 9,6 C 13,4 C 2,0 km/h
10.07.2015 06:00 13,7 C 78 % 1021,5 hPa 0,0 l/m 1,1 km/h N 9,8 C 13,7 C 7,6 km/h
10.07.2015 07:00 15,4 C 69 % 1021,9 hPa 0,0 l/m 6,1 km/h N 9,7 C 15,2 C 18,1 km/h
10.07.2015 08:00 16,8 C 59 % 1022,0 hPa 0,0 l/m 5,4 km/h N 8,8 C 16,8 C 16,9 km/h
10.07.2015 09:00 17,8 C 57 % 1021,6 hPa 0,0 l/m 3,7 km/h N 9,1 C 17,8 C 13,3 km/h
10.07.2015 10:00 18,7 C 56 % 1021,3 hPa 0,0 l/m 3,7 km/h N 9,6 C 18,7 C 13,7 km/h
10.07.2015 11:00 19,2 C 55 % 1020,6 hPa 0,0 l/m 7,3 km/h N 9,9 C 18,7 C 21,3 km/h
10.07.2015 12:00 21,0 C 47 % 1019,9 hPa 0,0 l/m 10,9 km/h N 9,1 C 19,4 C 27,8 km/h
10.07.2015 13:00 21,7 C 44 % 1019,5 hPa 0,0 l/m 11,7 km/h N 8,8 C 20,1 C 27,7 km/h
10.07.2015 14:00 22,8 C 44 % 1019,1 hPa 0,0 l/m 7,4 km/h N 9,7 C 22,4 C 26,5 km/h
10.07.2015 15:00 23,0 C 41 % 1018,7 hPa 0,0 l/m 8,1 km/h N 9,1 C 22,3 C 29,0 km/h
10.07.2015 16:00 23,0 C 40 % 1018,2 hPa 0,0 l/m 8,6 km/h N 8,5 C 22,4 C 24,5 km/h
10.07.2015 17:00 23,5 C 39 % 1017,9 hPa 0,0 l/m 6,3 km/h N 8,8 C 23,4 C 22,5 km/h
10.07.2015 18:00 23,8 C 38 % 1017,7 hPa 0,0 l/m 4,9 km/h N 8,5 C 23,7 C 23,3 km/h
10.07.2015 19:00 23,5 C 38 % 1017,6 hPa 0,0 l/m 3,3 km/h N 8,4 C 23,5 C 15,7 km/h
10.07.2015 20:00 22,2 C 41 % 1017,8 hPa 0,0 l/m 1,1 km/h N 8,2 C 22,2 C 8,4 km/h
10.07.2015 21:00 19,8 C 49 % 1018,5 hPa 0,0 l/m 0,2 km/h N 8,8 C 19,8 C 4,8 km/h
10.07.2015 22:00 18,2 C 54 % 1018,9 hPa 0,0 l/m 0,2 km/h N 8,8 C 18,2 C 2,8 km/h
10.07.2015 23:00 16,7 C 59 % 1019,3 hPa 0,0 l/m 0,9 km/h N 8,5 C 16,7 C 6,0 km/h
11.07.2015 00:00 15,9 C 60 % 1020,1 hPa 0,0 l/m 0,0 km/h N 8,2 C 15,9 C 0,4 km/h
11.07.2015 01:00 13,4 C 68 % 1020,1 hPa 0,0 l/m 0,0 km/h N 7,7 C 13,4 C 0,0 km/h
11.07.2015 02:00 11,9 C 73 % 1020,1 hPa 0,0 l/m 0,0 km/h N 7,2 C 11,9 C 0,0 km/h
11.07.2015 03:00 11,0 C 76 % 1020,1 hPa 0,0 l/m 0,0 km/h N 6,8 C 11,0 C 0,8 km/h
11.07.2015 04:00 10,6 C 77 % 1020,1 hPa 0,0 l/m 0,1 km/h N 6,7 C 10,6 C 2,0 km/h
11.07.2015 05:00 10,5 C 76 % 1019,9 hPa 0,0 l/m 0,1 km/h N 6,5 C 10,5 C 2,4 km/h
11.07.2015 06:00 10,8 C 77 % 1019,6 hPa 0,0 l/m 0,1 km/h N 6,9 C 10,8 C 1,6 km/h
11.07.2015 07:00 12,4 C 72 % 1019,6 hPa 0,0 l/m 0,0 km/h N 7,3 C 12,4 C 0,8 km/h
11.07.2015 08:00 17,2 C 54 % 1019,4 hPa 0,0 l/m 0,3 km/h N 7,8 C 17,2 C 5,2 km/h
11.07.2015 09:00 20,6 C 46 % 1019,0 hPa 0,0 l/m 1,0 km/h N 8,4 C 20,6 C 5,2 km/h
11.07.2015 10:00 21,9 C 43 % 1018,7 hPa 0,0 l/m 1,7 km/h N 8,7 C 21,9 C 10,1 km/h
11.07.2015 11:00 23,3 C 41 % 1017,9 hPa 0,0 l/m 1,2 km/h N 9,2 C 23,3 C 8,4 km/h
11.07.2015 12:00 23,8 C 42 % 1017,3 hPa 0,0 l/m 1,4 km/h N 10,0 C 23,8 C 8,4 km/h
11.07.2015 13:00 24,9 C 42 % 1016,8 hPa 0,0 l/m 1,1 km/h N 11,0 C 24,9 C 8,4 km/h
11.07.2015 14:00 25,5 C 39 % 1016,0 hPa 0,0 l/m 1,4 km/h N 10,5 C 25,5 C 7,6 km/h
11.07.2015 15:00 26,5 C 38 % 1015,3 hPa 0,0 l/m 0,9 km/h N 11,0 C 26,5 C 6,0 km/h
11.07.2015 16:00 26,4 C 38 % 1014,8 hPa 0,0 l/m 1,5 km/h N 10,9 C 26,4 C 7,3 km/h
11.07.2015 17:00 26,7 C 39 % 1014,3 hPa 0,0 l/m 1,2 km/h N 11,4 C 26,7 C 7,6 km/h
11.07.2015 18:00 27,8 C 38 % 1014,0 hPa 0,0 l/m 0,6 km/h N 12,2 C 27,8 C 4,8 km/h
11.07.2015 19:00 27,2 C 42 % 1013,8 hPa 0,0 l/m 0,5 km/h N 13,2 C 27,2 C 4,4 km/h
11.07.2015 20:00 25,4 C 48 % 1014,0 hPa 0,0 l/m 0,0 km/h N 13,4 C 25,4 C 0,8 km/h
11.07.2015 21:00 22,3 C 55 % 1014,7 hPa 0,0 l/m 0,0 km/h N 12,9 C 22,3 C 0,0 km/h
11.07.2015 22:00 19,5 C 66 % 1014,9 hPa 0,0 l/m 0,0 km/h N 13,0 C 19,5 C 0,0 km/h
11.07.2015 23:00 17,9 C 72 % 1015,1 hPa 0,0 l/m 0,2 km/h N 12,8 C 17,9 C 2,0 km/h
12.07.2015 00:00 17,2 C 75 % 1015,0 hPa 0,0 l/m 0,2 km/h N 12,6 C 17,2 C 3,2 km/h
12.07.2015 01:00 16,7 C 76 % 1014,9 hPa 0,0 l/m 0,0 km/h N 12,4 C 16,7 C 0,8 km/h
12.07.2015 02:00 15,9 C 78 % 1014,9 hPa 0,0 l/m 0,0 km/h N 12,1 C 15,9 C 1,2 km/h
12.07.2015 03:00 15,0 C 80 % 1015,0 hPa 0,0 l/m 0,0 km/h N 11,5 C 15,0 C 0,8 km/h
12.07.2015 04:00 14,4 C 82 % 1015,2 hPa 0,0 l/m 0,1 km/h N 11,2 C 14,4 C 2,0 km/h
12.07.2015 05:00 13,9 C 82 % 1015,3 hPa 0,0 l/m 0,0 km/h N 10,9 C 13,9 C 1,2 km/h
12.07.2015 06:00 14,4 C 81 % 1015,3 hPa 0,0 l/m 0,0 km/h N 11,2 C 14,4 C 0,0 km/h
12.07.2015 07:00 16,0 C 81 % 1015,3 hPa 0,0 l/m 0,0 km/h N 12,6 C 16,0 C 0,4 km/h
12.07.2015 08:00 20,4 C 70 % 1015,3 hPa 0,0 l/m 0,3 km/h N 14,6 C 20,4 C 4,0 km/h
12.07.2015 09:00 25,6 C 56 % 1015,0 hPa 0,0 l/m 0,3 km/h N 16,1 C 25,6 C 2,8 km/h
12.07.2015 10:00 27,5 C 48 % 1014,7 hPa 0,0 l/m 3,9 km/h N 15,5 C 27,5 C 12,9 km/h
12.07.2015 11:00 28,1 C 43 % 1014,4 hPa 0,0 l/m 5,6 km/h N 14,4 C 28,1 C 16,5 km/h
12.07.2015 12:00 29,0 C 41 % 1014,1 hPa 0,0 l/m 4,8 km/h N 14,5 C 29,0 C 17,3 km/h
12.07.2015 13:00 29,5 C 39 % 1013,7 hPa 0,0 l/m 6,0 km/h N 13,9 C 29,5 C 18,5 km/h
12.07.2015 14:00 30,0 C 37 % 1013,2 hPa 0,0 l/m 4,9 km/h N 13,6 C 30,0 C 17,7 km/h
12.07.2015 15:00 30,6 C 34 % 1012,8 hPa 0,0 l/m 6,1 km/h N 12,9 C 30,6 C 22,9 km/h
12.07.2015 16:00 30,7 C 33 % 1012,4 hPa 0,0 l/m 6,3 km/h N 12,4 C 30,6 C 22,9 km/h
12.07.2015 17:00 30,6 C 32 % 1012,1 hPa 0,0 l/m 10,2 km/h N 12,0 C 30,3 C 28,2 km/h
12.07.2015 18:00 30,3 C 35 % 1011,8 hPa 0,0 l/m 6,4 km/h N 12,9 C 30,2 C 25,4 km/h
12.07.2015 19:00 30,0 C 35 % 1011,4 hPa 0,0 l/m 4,0 km/h N 12,9 C 30,0 C 14,5 km/h
12.07.2015 20:00 28,4 C 41 % 1011,3 hPa 0,0 l/m 0,2 km/h N 13,7 C 28,4 C 4,4 km/h
12.07.2015 21:00 25,9 C 46 % 1011,6 hPa 0,0 l/m 0,2 km/h N 13,2 C 25,9 C 2,4 km/h
12.07.2015 22:00 23,4 C 53 % 1011,8 hPa 0,0 l/m 0,0 km/h N 13,2 C 23,4 C 0,0 km/h
12.07.2015 23:00 22,1 C 57 % 1012,0 hPa 0,0 l/m 0,0 km/h N 13,2 C 22,1 C 0,0 km/h
Min-Datum _ 11.07.15 12.07.15 08.07.15 - 06.07.15 - 11.07.15 11.07.15 06.07.15
_ Min-Zeit 05:45 16:15 02:30 - 00:00 - 05:45 05:45 00:00
Minimum _ 10,4 C 31 % 1004,0 hPa - 0,0 km/h - 6,4 C 10,4 C 0,0 km/h
Max-Datum _ 07.07.15 08.07.15 10.07.15 08.07.15 09.07.15 - 07.07.15 07.07.15 06.07.15
_ Max-Zeit 14:30 22:00 08:15 19:15 17:15 - 14:30 15:15 10:30
Maximum _ 36,7 C 82 % 1022,1 hPa 4,9 l/m 21,6 km/h
N
- 22,2 C 36,7 C 49,9 km/h
N
Durchschnitt _ 22,8 C 60 % 1014,5 hPa #18,5 l/m 3,7 km/h N 14,0 C 22,6 C 12,5 km/h